createdAt,value
2016-10-26T00:00:38.772Z,14.64
2016-10-26T00:01:19.238Z,14.78
2016-10-26T00:01:59.717Z,14.75
2016-10-26T00:02:40.187Z,14.73
2016-10-26T00:03:20.615Z,14.73
2016-10-26T00:04:01.100Z,14.73
2016-10-26T00:04:41.570Z,14.72
2016-10-26T00:05:22.034Z,14.75
2016-10-26T00:06:02.478Z,14.81
2016-10-26T00:06:42.934Z,14.61
2016-10-26T00:07:23.401Z,14.65
2016-10-26T00:08:03.872Z,14.62
2016-10-26T00:08:44.334Z,14.62
2016-10-26T00:09:24.755Z,14.61
2016-10-26T00:10:05.258Z,14.61
2016-10-26T00:10:45.634Z,14.58
2016-10-26T00:11:26.093Z,14.61
2016-10-26T00:12:06.597Z,14.64
2016-10-26T00:12:47.060Z,14.64
2016-10-26T00:13:27.514Z,14.64
2016-10-26T00:14:07.954Z,14.65
2016-10-26T00:14:48.398Z,14.68
2016-10-26T00:15:28.883Z,14.62
2016-10-26T00:16:09.288Z,14.58
2016-10-26T00:16:49.706Z,14.52
2016-10-26T00:17:30.133Z,14.42
2016-10-26T00:18:10.581Z,14.54
2016-10-26T00:18:51.034Z,14.46
2016-10-26T00:19:31.480Z,14.47
2016-10-26T00:20:11.969Z,14.45
2016-10-26T00:20:52.395Z,14.45
2016-10-26T00:21:32.866Z,14.5
2016-10-26T00:22:13.308Z,14.5
2016-10-26T00:22:53.776Z,14.51
2016-10-26T00:23:34.227Z,14.46
2016-10-26T00:24:14.724Z,14.5
2016-10-26T00:24:55.127Z,14.5
2016-10-26T00:25:35.605Z,14.33
2016-10-26T00:26:16.057Z,14.45
2016-10-26T00:26:56.520Z,14.4
2016-10-26T00:27:37.122Z,14.42
2016-10-26T00:28:17.613Z,14.37
2016-10-26T00:28:58.049Z,14.35
2016-10-26T00:29:38.504Z,14.39
2016-10-26T00:30:18.930Z,14.33
2016-10-26T00:30:59.369Z,14.33
2016-10-26T00:31:39.816Z,14.28
2016-10-26T00:32:20.408Z,14.24
2016-10-26T00:34:36.292Z,14.35
2016-10-26T00:35:17.129Z,14.27
2016-10-26T00:35:57.558Z,14.42
2016-10-26T00:36:38.648Z,14.39
2016-10-26T00:37:19.173Z,14.32
2016-10-26T00:37:59.653Z,14.24
2016-10-26T00:38:40.126Z,14.32
2016-10-26T00:39:20.569Z,14.25
2016-10-26T00:40:01.084Z,14.33
2016-10-26T00:40:41.530Z,14.33
2016-10-26T00:41:23.614Z,14.2
2016-10-26T00:42:04.061Z,14.18
2016-10-26T00:42:44.575Z,14.21
2016-10-26T00:43:24.963Z,14.15
2016-10-26T00:44:05.621Z,14.18
2016-10-26T00:44:46.141Z,14.09
2016-10-26T00:45:28.364Z,14
2016-10-26T00:46:08.885Z,14.03
2016-10-26T00:46:49.324Z,14
2016-10-26T00:47:29.770Z,13.99
2016-10-26T00:48:10.231Z,14.07
2016-10-26T00:48:50.700Z,14.07
2016-10-26T00:49:31.169Z,13.96
2016-10-26T00:50:11.619Z,14.02
2016-10-26T00:50:52.069Z,14.03
2016-10-26T00:51:32.554Z,14.15
2016-10-26T00:52:13.019Z,14.04
2016-10-26T00:52:53.461Z,14.06
2016-10-26T00:53:33.916Z,14.07
2016-10-26T00:54:14.402Z,14.15
2016-10-26T00:54:54.848Z,14.12
2016-10-26T00:55:35.296Z,14.1
2016-10-26T00:56:15.758Z,14.14
2016-10-26T00:56:56.224Z,14.07
2016-10-26T00:57:36.692Z,14.18
2016-10-26T00:58:17.141Z,14.18
2016-10-26T00:58:57.599Z,14.17
2016-10-26T00:59:38.047Z,14.07
2016-10-26T01:00:18.505Z,13.92
2016-10-26T01:00:58.947Z,13.97
2016-10-26T01:01:39.422Z,14.06
2016-10-26T01:02:19.999Z,14
2016-10-26T01:03:00.472Z,14
2016-10-26T01:03:40.954Z,14.06
2016-10-26T01:04:21.403Z,14.07
2016-10-26T01:05:01.859Z,14.06
2016-10-26T01:05:42.320Z,14.15
2016-10-26T01:06:22.808Z,14.04
2016-10-26T01:07:03.250Z,14.1
2016-10-26T01:07:43.744Z,14.07
2016-10-26T01:08:24.206Z,14.1
2016-10-26T01:09:04.637Z,14.15
2016-10-26T01:09:45.098Z,14.14
2016-10-26T01:10:25.562Z,14.04
2016-10-26T01:11:06.037Z,14.14
2016-10-26T01:11:46.510Z,14.12
2016-10-26T01:12:27.013Z,14.07
2016-10-26T01:13:07.490Z,14.1
2016-10-26T01:13:47.951Z,14.12
2016-10-26T01:14:28.441Z,14.09
2016-10-26T01:15:08.857Z,14.09
2016-10-26T01:15:49.307Z,14
2016-10-26T01:16:29.757Z,14
2016-10-26T01:17:10.236Z,14
2016-10-26T01:17:50.685Z,14.06
2016-10-26T01:18:31.149Z,14.02
2016-10-26T01:19:11.611Z,14.04
2016-10-26T01:19:52.074Z,14.03
2016-10-26T01:20:32.530Z,13.95
2016-10-26T01:21:13.003Z,14
2016-10-26T01:21:53.463Z,13.95
2016-10-26T01:22:33.949Z,13.99
2016-10-26T01:23:14.418Z,14.04
2016-10-26T01:23:54.890Z,14.06
2016-10-26T01:24:35.348Z,14.03
2016-10-26T01:25:15.824Z,14.02
2016-10-26T01:25:56.295Z,14.06
2016-10-26T01:26:36.770Z,14.04
2016-10-26T01:27:17.237Z,14.02
2016-10-26T01:27:57.698Z,14.04
2016-10-26T01:28:38.173Z,14.06
2016-10-26T01:29:18.642Z,14.1
2016-10-26T01:29:59.114Z,14.02
2016-10-26T01:30:39.581Z,14.04
2016-10-26T01:31:20.043Z,13.99
2016-10-26T01:32:00.507Z,13.96
2016-10-26T01:32:40.966Z,14
2016-10-26T01:33:21.442Z,13.99
2016-10-26T01:34:01.911Z,13.92
2016-10-26T01:34:42.379Z,13.96
2016-10-26T01:35:22.847Z,13.87
2016-10-26T01:36:03.318Z,13.85
2016-10-26T01:36:43.794Z,13.89
2016-10-26T01:37:24.251Z,13.87
2016-10-26T01:38:05.425Z,13.87
2016-10-26T01:38:45.989Z,13.87
2016-10-26T01:39:26.453Z,13.82
2016-10-26T01:40:06.921Z,13.91
2016-10-26T01:40:47.383Z,13.88
2016-10-26T01:41:27.840Z,13.85
2016-10-26T01:42:08.327Z,13.88
2016-10-26T01:42:48.804Z,13.87
2016-10-26T01:43:29.271Z,13.85
2016-10-26T01:44:09.747Z,13.88
2016-10-26T01:44:50.207Z,13.85
2016-10-26T01:45:30.676Z,13.82
2016-10-26T01:46:11.168Z,13.79
2016-10-26T01:46:51.623Z,13.78
2016-10-26T01:47:32.058Z,13.78
2016-10-26T01:48:12.501Z,13.75
2016-10-26T01:48:52.964Z,13.75
2016-10-26T01:49:33.453Z,13.79
2016-10-26T01:50:13.893Z,13.69
2016-10-26T01:50:54.347Z,13.78
2016-10-26T01:51:34.813Z,13.81
2016-10-26T01:52:15.347Z,13.82
2016-10-26T01:52:55.801Z,13.82
2016-10-26T01:53:36.309Z,13.84
2016-10-26T01:54:16.790Z,13.82
2016-10-26T01:54:57.240Z,13.78
2016-10-26T01:55:37.687Z,13.73
2016-10-26T01:56:18.162Z,13.67
2016-10-26T01:56:58.642Z,13.81
2016-10-26T01:57:39.097Z,13.79
2016-10-26T01:58:19.564Z,13.82
2016-10-26T01:59:00.046Z,13.77
2016-10-26T01:59:40.499Z,13.87
2016-10-26T02:00:20.969Z,13.84
2016-10-26T02:01:01.444Z,13.87
2016-10-26T02:01:41.915Z,13.82
2016-10-26T02:02:22.370Z,13.84
2016-10-26T02:03:02.825Z,13.81
2016-10-26T02:03:45.115Z,13.81
2016-10-26T02:04:25.680Z,13.66
2016-10-26T02:05:06.078Z,13.67
2016-10-26T02:05:46.558Z,13.79
2016-10-26T02:06:27.002Z,13.77
2016-10-26T02:07:07.510Z,13.6
2016-10-26T02:07:48.003Z,13.63
2016-10-26T02:08:28.440Z,13.64
2016-10-26T02:09:08.857Z,13.6
2016-10-26T02:09:49.355Z,13.52
2016-10-26T02:10:29.835Z,13.48
2016-10-26T02:11:10.273Z,13.57
2016-10-26T02:11:50.736Z,13.55
2016-10-26T02:12:31.217Z,13.59
2016-10-26T02:13:11.689Z,13.54
2016-10-26T02:13:52.139Z,13.54
2016-10-26T02:14:32.610Z,13.54
2016-10-26T02:15:13.072Z,13.52
2016-10-26T02:15:53.532Z,13.51
2016-10-26T02:16:33.998Z,13.59
2016-10-26T02:17:14.465Z,13.54
2016-10-26T02:17:54.937Z,13.51
2016-10-26T02:18:35.400Z,13.52
2016-10-26T02:19:15.828Z,13.59
2016-10-26T02:19:56.291Z,13.55
2016-10-26T02:20:36.748Z,13.59
2016-10-26T02:21:17.199Z,13.54
2016-10-26T02:21:57.670Z,13.55
2016-10-26T02:22:38.129Z,13.55
2016-10-26T02:23:18.596Z,13.54
2016-10-26T02:23:59.076Z,13.57
2016-10-26T02:24:39.543Z,13.52
2016-10-26T02:25:20.004Z,13.59
2016-10-26T02:26:00.468Z,13.44
2016-10-26T02:26:40.923Z,13.48
2016-10-26T02:27:21.393Z,13.46
2016-10-26T02:28:01.852Z,13.33
2016-10-26T02:28:42.307Z,13.33
2016-10-26T02:29:22.755Z,13.41
2016-10-26T02:30:03.208Z,13.42
2016-10-26T02:30:43.686Z,13.39
2016-10-26T02:31:24.133Z,13.38
2016-10-26T02:32:04.585Z,13.36
2016-10-26T02:32:45.033Z,13.3
2016-10-26T02:33:25.528Z,13.36
2016-10-26T02:34:05.984Z,13.36
2016-10-26T02:34:46.446Z,13.3
2016-10-26T02:35:26.927Z,13.3
2016-10-26T02:37:14.891Z,13.23
2016-10-26T02:37:55.348Z,13.26
2016-10-26T02:38:35.817Z,13.25
2016-10-26T02:39:16.291Z,13.19
2016-10-26T02:39:56.754Z,13.22
2016-10-26T02:40:37.224Z,13.28
2016-10-26T02:41:17.696Z,13.19
2016-10-26T02:41:58.182Z,13.28
2016-10-26T02:42:38.641Z,13.2
2016-10-26T02:43:19.106Z,13.12
2016-10-26T02:43:59.576Z,13.23
2016-10-26T02:44:40.048Z,13.17
2016-10-26T02:45:20.518Z,13.17
2016-10-26T02:46:00.982Z,13.1
2016-10-26T02:46:41.454Z,13.12
2016-10-26T02:47:21.926Z,13.1
2016-10-26T02:48:02.397Z,13.04
2016-10-26T02:48:42.874Z,13.1
2016-10-26T02:49:23.332Z,13.1
2016-10-26T02:50:03.800Z,13.04
2016-10-26T02:50:44.258Z,13.04
2016-10-26T02:51:24.716Z,13.04
2016-10-26T02:52:05.181Z,13.01
2016-10-26T02:52:45.645Z,12.95
2016-10-26T02:53:26.122Z,12.97
2016-10-26T02:54:06.610Z,12.97
2016-10-26T02:54:47.103Z,13
2016-10-26T02:55:27.553Z,13
2016-10-26T02:56:08.037Z,13.07
2016-10-26T02:56:48.511Z,12.95
2016-10-26T02:57:28.945Z,13.04
2016-10-26T02:58:09.370Z,13.1
2016-10-26T02:58:49.823Z,12.97
2016-10-26T02:59:30.292Z,13.07
2016-10-26T03:00:10.768Z,13.04
2016-10-26T03:00:51.236Z,13.1
2016-10-26T03:01:31.687Z,13.08
2016-10-26T03:02:12.158Z,13.08
2016-10-26T03:02:52.601Z,13.19
2016-10-26T03:03:33.030Z,13.19
2016-10-26T03:04:13.481Z,13.22
2016-10-26T03:04:53.963Z,13.08
2016-10-26T03:05:34.358Z,13.14
2016-10-26T03:06:14.844Z,13.11
2016-10-26T03:06:55.296Z,13.19
2016-10-26T03:07:35.751Z,13.12
2016-10-26T03:08:16.201Z,13.2
2016-10-26T03:08:56.686Z,13.07
2016-10-26T03:09:37.130Z,13.25
2016-10-26T03:10:17.606Z,13.2
2016-10-26T03:10:58.068Z,13.2
2016-10-26T03:11:38.508Z,13.25
2016-10-26T03:12:18.974Z,13.19
2016-10-26T03:12:59.452Z,13.22
2016-10-26T03:13:39.946Z,13.28
2016-10-26T03:14:20.394Z,13.3
2016-10-26T03:15:00.849Z,13.28
2016-10-26T03:15:41.326Z,13.22
2016-10-26T03:16:21.804Z,13.25
2016-10-26T03:17:02.269Z,13.17
2016-10-26T03:17:42.754Z,13.14
2016-10-26T07:29:55.388Z,15.78
2016-10-26T07:31:17.556Z,16.01
2016-10-26T07:31:57.997Z,16.07
2016-10-26T07:32:38.472Z,16.11
2016-10-26T07:33:18.935Z,16.09
2016-10-26T07:35:18.497Z,16.08
2016-10-26T07:35:59.087Z,16.11
2016-10-26T07:36:39.593Z,16.04
2016-10-26T07:37:20.391Z,16
2016-10-26T07:38:00.901Z,15.92
2016-10-26T07:38:41.307Z,15.97
2016-10-26T07:39:22.142Z,16
2016-10-26T07:40:03.375Z,16.02
2016-10-26T07:42:16.527Z,15.92
2016-10-26T07:42:57.022Z,15.83
2016-10-26T07:43:37.427Z,15.8
2016-10-26T07:44:17.956Z,15.76
2016-10-26T07:44:58.376Z,15.76
2016-10-26T07:45:38.874Z,15.59
2016-10-26T07:46:19.307Z,15.5
2016-10-26T07:47:00.025Z,15.49
2016-10-26T07:47:40.486Z,15.59
2016-10-26T07:48:20.936Z,15.56
2016-10-26T07:50:09.166Z,15.56
2016-10-26T07:50:49.488Z,15.74
2016-10-26T07:51:29.926Z,15.83
2016-10-26T07:52:10.395Z,15.84
2016-10-26T07:52:50.834Z,15.83
2016-10-26T07:53:31.271Z,15.71
2016-10-26T07:54:11.668Z,15.64
2016-10-26T07:54:52.091Z,15.62
2016-10-26T07:55:32.565Z,15.8
2016-10-26T07:56:12.988Z,15.84
2016-10-26T07:56:53.424Z,15.92
2016-10-26T07:57:33.856Z,15.92
2016-10-26T07:58:14.352Z,15.74
2016-10-26T07:58:54.782Z,15.56
2016-10-26T07:59:35.260Z,15.57
2016-10-26T08:00:15.719Z,15.72
2016-10-26T08:00:56.175Z,15.68
2016-10-26T08:01:36.648Z,15.74
2016-10-26T08:02:17.034Z,15.56
2016-10-26T08:02:57.491Z,15.62
2016-10-26T08:03:37.994Z,15.47
2016-10-26T08:04:18.447Z,15.6
2016-10-26T08:04:58.971Z,15.57
2016-10-26T08:05:39.473Z,15.51
2016-10-26T08:06:19.886Z,15.39
2016-10-26T08:07:00.327Z,15.54
2016-10-26T08:07:40.721Z,15.67
2016-10-26T08:08:25.127Z,15.83
2016-10-26T08:09:05.625Z,15.83
2016-10-26T08:09:48.293Z,15.93
2016-10-26T08:10:29.687Z,15.96
2016-10-26T08:11:13.708Z,15.94
2016-10-26T08:12:52.572Z,16.07
2016-10-26T08:13:43.584Z,16.07
2016-10-26T08:14:23.692Z,16.04
2016-10-26T08:15:04.726Z,16.08
2016-10-26T08:18:00.670Z,16.07
2016-10-26T08:18:47.920Z,16.07
2016-10-26T08:19:39.520Z,16.14
2016-10-26T08:22:02.383Z,16.12
2016-10-26T08:22:50.657Z,16.27
2016-10-26T08:23:37.197Z,16.14
2016-10-26T08:24:21.106Z,16.07
2016-10-26T08:25:01.630Z,16.04
2016-10-26T08:25:42.831Z,16.08
2016-10-26T08:26:23.439Z,16.02
2016-10-26T08:27:03.856Z,16.02
2016-10-26T08:27:45.210Z,16.04
2016-10-26T08:28:25.167Z,16.05
2016-10-26T08:29:05.550Z,16.07
2016-10-26T08:29:46.070Z,15.89
2016-10-26T08:30:26.525Z,15.75
2016-10-26T08:49:47.523Z,16.86
2016-10-26T08:50:27.978Z,16.88
2016-10-26T08:51:08.405Z,16.88
2016-10-26T08:51:48.808Z,16.94
2016-10-26T08:52:29.282Z,17.04
2016-10-26T08:53:09.738Z,17.04
2016-10-26T08:53:50.228Z,17.12
2016-10-26T08:54:30.672Z,17.26
2016-10-26T08:55:11.133Z,17.23
2016-10-26T08:55:51.484Z,17.26
2016-10-26T08:56:31.924Z,17.26
2016-10-26T08:57:12.388Z,17.38
2016-10-26T08:57:53.387Z,17.21
2016-10-26T08:58:34.371Z,17.21
2016-10-26T08:59:14.655Z,17.21
2016-10-26T08:59:55.148Z,17.12
2016-10-26T09:00:35.712Z,17.18
2016-10-26T09:01:16.128Z,17.21
2016-10-26T09:01:56.626Z,17.26
2016-10-26T09:02:37.107Z,17.34
2016-10-26T09:03:17.524Z,17.38
2016-10-26T09:03:57.959Z,17.38
2016-10-26T09:04:38.456Z,17.33
2016-10-26T09:05:18.903Z,17.22
2016-10-26T09:05:59.335Z,17.18
2016-10-26T09:06:39.789Z,17.16
2016-10-26T09:07:20.209Z,17.15
2016-10-26T09:08:00.658Z,17.14
2016-10-26T09:08:41.085Z,17.26
2016-10-26T09:09:21.553Z,17.33
2016-10-26T09:10:01.989Z,17.22
2016-10-26T09:10:42.415Z,17.22
2016-10-26T09:11:22.933Z,17.36
2016-10-26T09:12:03.558Z,17.38
2016-10-26T09:12:45.670Z,17.43
2016-10-26T09:13:26.074Z,17.43
2016-10-26T09:14:06.589Z,17.49
2016-10-26T09:14:46.999Z,17.41
2016-10-26T09:15:27.605Z,17.51
2016-10-26T09:16:07.947Z,17.48
2016-10-26T09:16:48.443Z,17.48
2016-10-26T09:17:28.899Z,17.48
2016-10-26T09:18:09.308Z,17.54
2016-10-26T09:18:49.797Z,17.54
2016-10-26T09:19:30.173Z,17.59
2016-10-26T09:20:10.626Z,17.43
2016-10-26T09:20:51.164Z,17.41
2016-10-26T09:21:31.511Z,17.43
2016-10-26T09:22:11.986Z,17.4
2016-10-26T09:22:52.394Z,17.41
2016-10-26T09:23:32.903Z,17.48
2016-10-26T09:24:13.331Z,17.49
2016-10-26T09:24:53.723Z,17.55
2016-10-26T09:25:34.135Z,17.62
2016-10-26T09:26:14.723Z,17.56
2016-10-26T09:26:55.170Z,17.62
2016-10-26T09:27:35.598Z,17.79
2016-10-26T09:28:16.050Z,17.82
2016-10-26T09:28:56.512Z,17.95
2016-10-26T09:29:37.135Z,17.86
2016-10-26T09:30:25.879Z,17.86
2016-10-26T09:31:06.335Z,17.93
2016-10-26T09:31:46.754Z,18
2016-10-26T09:32:27.249Z,17.99
2016-10-26T09:33:07.624Z,17.95
2016-10-26T09:33:48.090Z,17.95
2016-10-26T09:34:28.668Z,17.96
2016-10-26T09:35:09.088Z,17.99
2016-10-26T09:35:49.539Z,17.96
2016-10-26T09:38:04.756Z,17.77
2016-10-26T09:38:47.170Z,17.9
2016-10-26T09:39:27.384Z,17.9
2016-10-26T09:40:07.839Z,17.89
2016-10-26T09:40:48.234Z,17.78
2016-10-26T09:42:37.791Z,17.64
2016-10-26T09:43:19.885Z,17.71
2016-10-26T09:44:00.712Z,17.75
2016-10-26T09:45:54.749Z,17.74
2016-10-26T09:46:42.843Z,17.75
2016-10-26T09:47:24.455Z,17.81
2016-10-26T09:48:05.571Z,17.72
2016-10-26T09:49:56.724Z,17.86
2016-10-26T09:50:41.139Z,18.02
2016-10-26T09:51:21.724Z,17.95
2016-10-26T09:52:02.206Z,18.02
2016-10-26T09:52:42.573Z,17.97
2016-10-26T09:53:23.137Z,17.92
2016-10-26T09:54:03.601Z,17.96
2016-10-26T09:54:44.234Z,18.1
2016-10-26T09:55:24.710Z,18.02
2016-10-26T09:56:05.528Z,18.12
2016-10-26T09:56:46.056Z,18.15
2016-10-26T09:57:26.642Z,18.21
2016-10-26T09:58:07.623Z,18.29
2016-10-26T09:58:50.489Z,18.3
2016-10-26T09:59:31.092Z,18.3
2016-10-26T10:00:11.596Z,18.29
2016-10-26T10:00:52.048Z,18.26
2016-10-26T10:01:34.380Z,18.33
2016-10-26T10:02:22.625Z,18.32
2016-10-26T10:03:04.029Z,18.26
2016-10-26T10:03:45.323Z,18.25
2016-10-26T10:04:25.719Z,18.15
2016-10-26T10:05:06.203Z,18.11
2016-10-26T10:05:46.742Z,18.12
2016-10-26T10:07:50.333Z,17.96
2016-10-26T10:08:39.483Z,17.96
2016-10-26T10:09:27.614Z,17.97
2016-10-26T10:11:48.724Z,18.1
2016-10-26T10:12:37.964Z,18.18
2016-10-26T10:13:24.680Z,18.21
2016-10-26T10:14:12.310Z,18.3
2016-10-26T10:15:01.423Z,18.27
2016-10-26T10:15:47.758Z,18.33
2016-10-26T10:16:27.652Z,18.36
2016-10-26T10:17:08.280Z,18.27
2016-10-26T10:17:48.690Z,18.42
2016-10-26T10:18:29.104Z,18.35
2016-10-26T10:19:09.545Z,18.11
2016-10-26T10:19:50.016Z,17.96
2016-10-26T10:20:30.459Z,18
2016-10-26T10:21:10.929Z,18.2
2016-10-26T10:21:51.390Z,18.29
2016-10-26T10:22:31.921Z,18.42
2016-10-26T10:23:12.285Z,18.42
2016-10-26T10:23:53.650Z,18.39
2016-10-26T10:24:36.211Z,18.37
2016-10-26T10:25:16.676Z,18.48
2016-10-26T10:25:57.982Z,18.55
2016-10-26T10:26:38.503Z,18.67
2016-10-26T10:27:18.858Z,18.73
2016-10-26T10:28:03.209Z,18.85
2016-10-26T11:02:06.776Z,18.85
2016-10-26T11:02:54.042Z,18.82
2016-10-26T11:03:38.202Z,18.75
2016-10-26T11:04:18.960Z,18.58
2016-10-26T11:04:59.564Z,18.48
2016-10-26T11:05:39.997Z,18.51
2016-10-26T11:06:20.468Z,18.51
2016-10-26T11:07:00.953Z,18.52
2016-10-26T11:07:44.276Z,18.41
2016-10-26T13:43:42.115Z,17.14
2016-10-26T13:44:22.604Z,17.08
2016-10-26T13:45:03.018Z,17.12
2016-10-26T13:45:43.433Z,17.19
2016-10-26T13:46:23.913Z,17.22
2016-10-26T13:47:04.419Z,17.18
2016-10-26T13:47:44.847Z,17.19
2016-10-26T13:48:25.308Z,17.08
2016-10-26T13:49:05.761Z,17.11
2016-10-26T13:49:46.240Z,17.11
2016-10-26T13:50:26.687Z,17.08
2016-10-26T13:51:07.171Z,16.98
2016-10-26T13:51:47.604Z,16.94
2016-10-26T13:52:28.113Z,16.94
2016-10-26T13:53:08.564Z,16.98
2016-10-26T13:53:49.018Z,16.85
2016-10-26T13:54:29.591Z,16.94
2016-10-26T13:55:10.045Z,16.78
2016-10-26T13:55:50.855Z,16.73
2016-10-26T13:56:31.138Z,16.83
2016-10-26T13:57:11.506Z,16.79
2016-10-26T13:57:51.986Z,16.81
2016-10-26T13:58:32.442Z,16.83
2016-10-26T13:59:12.813Z,16.93
2016-10-26T13:59:53.310Z,16.91
2016-10-26T14:00:33.729Z,16.85
2016-10-26T14:01:14.196Z,16.94
2016-10-26T14:01:54.670Z,16.98
2016-10-26T14:02:35.087Z,16.98
2016-10-26T14:03:15.559Z,17.04
2016-10-26T14:03:56.044Z,17.08
2016-10-26T14:04:36.537Z,17.12
2016-10-26T14:05:17.101Z,17.11
2016-10-26T14:05:57.607Z,17.12
2016-10-26T14:06:38.060Z,17.11
2016-10-26T14:07:18.505Z,17.11
2016-10-26T14:07:58.958Z,17.16
2016-10-26T14:08:39.401Z,17.14
2016-10-26T14:09:19.968Z,17.19
2016-10-26T14:10:00.433Z,17.15
2016-10-26T14:10:40.951Z,17.11
2016-10-26T14:11:21.362Z,17.06
2016-10-26T14:12:01.817Z,17.11
2016-10-26T14:12:42.269Z,17.14
2016-10-26T14:13:22.831Z,17.07
2016-10-26T14:14:03.300Z,17.12
2016-10-26T14:14:43.723Z,17.07
2016-10-26T14:15:24.287Z,17.08
2016-10-26T14:16:04.588Z,17.03
2016-10-26T14:16:45.087Z,17.12
2016-10-26T14:17:25.534Z,17.03
2016-10-26T14:18:05.977Z,17.01
2016-10-26T14:18:46.401Z,17.06
2016-10-26T14:19:26.854Z,17.12
2016-10-26T14:20:07.357Z,17.08
2016-10-26T14:20:47.777Z,16.96
2016-10-26T14:21:28.269Z,17.01
2016-10-26T14:22:08.760Z,16.97
2016-10-26T14:22:49.196Z,17.04
2016-10-26T14:23:29.699Z,17.08
2016-10-26T14:24:10.139Z,17.11
2016-10-26T14:24:50.655Z,17.12
2016-10-26T14:25:31.111Z,17.08
2016-10-26T14:26:11.480Z,17.07
2016-10-26T14:26:51.972Z,17.12
2016-10-26T14:27:32.462Z,17.04
2016-10-26T14:28:12.932Z,17.08
2016-10-26T14:28:53.401Z,16.89
2016-10-26T14:29:33.841Z,16.88
2016-10-26T14:30:14.322Z,16.91
2016-10-26T14:30:54.760Z,16.91
2016-10-26T14:31:35.205Z,16.88
2016-10-26T14:32:15.680Z,16.76
2016-10-26T14:32:56.124Z,16.75
2016-10-26T14:33:36.564Z,16.83
2016-10-26T14:34:17.019Z,16.79
2016-10-26T14:34:57.457Z,16.78
2016-10-26T14:35:37.914Z,16.58
2016-10-26T14:36:18.376Z,16.56
2016-10-26T14:36:58.782Z,16.53
2016-10-26T14:37:39.271Z,16.39
2016-10-26T14:38:19.718Z,16.42
2016-10-26T14:39:00.175Z,16.5
2016-10-26T14:39:40.638Z,16.56
2016-10-26T14:40:21.159Z,16.53
2016-10-26T14:41:01.590Z,16.63
2016-10-26T14:41:42.036Z,16.56
2016-10-26T14:42:22.479Z,16.5
2016-10-26T14:43:02.942Z,16.5
2016-10-26T14:43:43.402Z,16.71
2016-10-26T14:44:23.822Z,16.67
2016-10-26T14:45:04.275Z,16.67
2016-10-26T14:45:44.726Z,16.66
2016-10-26T14:46:25.198Z,16.64
2016-10-26T14:47:05.678Z,16.73
2016-10-26T14:47:46.082Z,16.68
2016-10-26T14:48:27.712Z,16.6
2016-10-26T14:49:08.412Z,16.57
2016-10-26T14:49:48.874Z,16.58
2016-10-26T14:50:33.072Z,16.53
2016-10-26T14:51:13.506Z,16.52
2016-10-26T14:51:54.002Z,16.49
2016-10-26T14:52:34.473Z,16.49
2016-10-26T14:53:14.890Z,16.52
2016-10-26T14:53:55.354Z,16.57
2016-10-26T14:54:35.774Z,16.53
2016-10-26T14:55:16.174Z,16.56
2016-10-26T14:55:56.648Z,16.56
2016-10-26T14:56:37.081Z,16.5
2016-10-26T14:57:17.550Z,16.45
2016-10-26T14:57:58.002Z,16.41
2016-10-26T14:58:38.525Z,16.42
2016-10-26T14:59:19.001Z,16.38
2016-10-26T14:59:59.466Z,16.41
2016-10-26T15:00:39.893Z,16.35
2016-10-26T15:01:20.347Z,16.33
2016-10-26T15:02:00.763Z,16.25
2016-10-26T15:02:41.233Z,16.28
2016-10-26T15:03:21.708Z,16.24
2016-10-26T15:04:02.159Z,16.11
2016-10-26T15:04:42.607Z,16.04
2016-10-26T15:05:23.066Z,16.05
2016-10-26T15:06:03.490Z,16.04
2016-10-26T15:06:43.915Z,16.01
2016-10-26T15:07:24.385Z,16.11
2016-10-26T15:08:04.816Z,16.09
2016-10-26T15:08:45.297Z,16.09
2016-10-26T15:09:27.597Z,16.08
2016-10-26T15:10:07.834Z,16.09
2016-10-26T15:10:49.721Z,16.05
2016-10-26T15:11:30.237Z,16.11
2016-10-26T15:12:10.645Z,16.09
2016-10-26T15:12:51.112Z,16.08
2016-10-26T15:13:31.545Z,16.17
2016-10-26T15:14:12.046Z,16.05
2016-10-26T15:14:52.500Z,16.04
2016-10-26T15:15:32.885Z,16.07
2016-10-26T15:16:13.423Z,16.11
2016-10-26T15:16:53.847Z,16.04
2016-10-26T15:17:34.311Z,16.09
2016-10-26T15:18:14.719Z,16.08
2016-10-26T15:18:58.328Z,16.09
2016-10-26T15:19:38.703Z,16.11
2016-10-26T15:20:19.194Z,16.08
2016-10-26T15:20:59.669Z,16.11
2016-10-26T15:21:40.079Z,16.04
2016-10-26T15:22:20.885Z,16.07
2016-10-26T15:23:00.995Z,16
2016-10-26T15:23:41.419Z,15.96
2016-10-26T15:24:21.845Z,15.92
2016-10-26T15:25:02.273Z,15.89
2016-10-26T15:25:42.694Z,15.82
2016-10-26T15:26:23.153Z,15.83
2016-10-26T15:27:03.623Z,15.83
2016-10-26T15:27:45.494Z,15.75
2016-10-26T15:28:24.521Z,15.78
2016-10-26T15:29:05.007Z,15.82
2016-10-26T15:29:45.380Z,15.75
2016-10-26T15:30:25.807Z,15.64
2016-10-26T15:31:06.263Z,15.67
2016-10-26T15:31:46.688Z,15.64
2016-10-26T15:32:27.138Z,15.59
2016-10-26T15:33:07.589Z,15.53
2016-10-26T15:33:48.031Z,15.62
2016-10-26T15:34:28.452Z,15.54
2016-10-26T15:35:08.904Z,15.51
2016-10-26T15:35:49.367Z,15.49
2016-10-26T15:36:29.789Z,15.57
2016-10-26T15:37:10.212Z,15.46
2016-10-26T15:37:50.664Z,15.43
2016-10-26T15:38:31.163Z,15.47
2016-10-26T15:39:11.562Z,15.5
2016-10-26T15:39:52.006Z,15.41
2016-10-26T15:40:32.472Z,15.39
2016-10-26T15:41:12.900Z,15.39
2016-10-26T15:41:53.334Z,15.41
2016-10-26T15:42:33.815Z,15.35
2016-10-26T15:43:14.263Z,15.44
2016-10-26T15:43:54.709Z,15.43
2016-10-26T15:44:35.135Z,15.43
2016-10-26T15:45:15.570Z,15.39
2016-10-26T15:45:56.018Z,15.25
2016-10-26T15:46:36.484Z,15.27
2016-10-26T15:47:16.922Z,15.25
2016-10-26T15:47:57.383Z,15.27
2016-10-26T15:48:37.808Z,15.17
2016-10-26T15:49:18.246Z,15.25
2016-10-26T15:49:58.733Z,15.16
2016-10-26T15:50:39.263Z,15.21
2016-10-26T15:51:19.725Z,15.07
2016-10-26T15:53:53.441Z,15.1
2016-10-26T15:54:33.887Z,15.07
2016-10-26T15:55:14.596Z,15.11
2016-10-26T15:55:55.050Z,15.13
2016-10-26T15:56:35.491Z,15.06
2016-10-26T15:57:15.905Z,15.01
2016-10-26T15:57:56.393Z,15.09
2016-10-26T15:58:36.805Z,15.06
2016-10-26T15:59:17.218Z,15.06
2016-10-26T15:59:57.678Z,15.09
2016-10-26T16:00:38.107Z,15.07
2016-10-26T16:01:18.622Z,15.06
2016-10-26T16:01:59.044Z,15.03
2016-10-26T16:02:39.494Z,15.07
2016-10-26T16:03:19.992Z,15.06
2016-10-26T16:10:06.661Z,15.17
2016-10-26T16:10:47.139Z,15.2
2016-10-26T16:11:27.660Z,15.25
2016-10-26T16:12:08.082Z,15.27
2016-10-26T16:12:48.616Z,15.27
2016-10-26T16:13:29.005Z,15.23
2016-10-26T16:14:09.439Z,15.35
2016-10-26T16:14:49.905Z,15.25
2016-10-26T16:15:30.360Z,15.25
2016-10-26T16:16:10.808Z,15.23
2016-10-26T16:16:51.263Z,15.17
2016-10-26T16:17:31.698Z,15.2
2016-10-26T16:18:12.194Z,15.17
2016-10-26T16:18:52.537Z,15.2
2016-10-26T16:19:32.990Z,15.17
2016-10-26T16:20:13.538Z,15.2
2016-10-26T16:20:53.924Z,15.11
2016-10-26T16:21:34.349Z,15.16
2016-10-26T16:22:14.774Z,15.13
2016-10-26T16:22:55.218Z,15.07
2016-10-26T16:23:35.689Z,15.03
2016-10-26T16:24:16.103Z,14.96
2016-10-26T16:24:56.559Z,15.02
2016-10-26T16:25:36.966Z,14.89
2016-10-26T16:26:17.440Z,14.98
2016-10-26T16:26:57.817Z,14.86
2016-10-26T16:27:38.295Z,14.88
2016-10-26T16:28:18.721Z,14.86
2016-10-26T16:29:00.044Z,14.81
2016-10-26T16:30:37.896Z,14.84
2016-10-26T16:32:37.367Z,14.94
2016-10-26T16:33:35.810Z,14.86
2016-10-26T16:34:34.264Z,14.8
2016-10-26T16:35:32.725Z,14.81
2016-10-26T16:36:31.190Z,14.77
2016-10-26T16:37:29.656Z,14.73
2016-10-26T16:38:28.131Z,14.72
2016-10-26T16:39:26.571Z,14.73
2016-10-26T16:40:25.033Z,14.75
2016-10-26T16:41:23.454Z,14.75
2016-10-26T16:42:21.925Z,14.7
2016-10-26T16:43:20.407Z,14.62
2016-10-26T16:44:18.934Z,14.64
2016-10-26T16:45:17.324Z,14.65
2016-10-26T16:47:17.238Z,14.64
2016-10-26T16:48:15.741Z,14.68
2016-10-26T16:49:14.199Z,14.58
2016-10-26T16:50:12.670Z,14.68
2016-10-26T16:51:11.125Z,14.61
2016-10-26T16:52:09.756Z,14.61
2016-10-26T16:53:08.054Z,14.61
2016-10-26T16:54:06.506Z,14.61
2016-10-26T16:55:04.982Z,14.55
2016-10-26T16:56:03.395Z,14.62
2016-10-26T16:57:01.861Z,14.58
2016-10-26T16:58:00.297Z,14.57
2016-10-26T16:58:58.844Z,14.61
2016-10-26T16:59:57.258Z,14.5
2016-10-26T17:00:56.040Z,14.47
2016-10-26T17:01:54.870Z,14.47
2016-10-26T17:02:53.349Z,14.55
2016-10-26T17:03:51.776Z,14.47
2016-10-26T17:04:50.197Z,14.61
2016-10-26T17:05:48.675Z,14.55
2016-10-26T17:06:47.170Z,14.6
2016-10-26T17:07:45.794Z,14.55
2016-10-26T17:08:44.244Z,14.62